createdAt,value
2023-03-26T00:01:54.259Z,8.13
2023-03-26T00:05:07.930Z,8.09
2023-03-26T00:08:20.274Z,8.00
2023-03-26T00:11:32.910Z,7.93
2023-03-26T00:14:45.241Z,7.86
2023-03-26T00:17:57.913Z,7.93
2023-03-26T00:21:15.249Z,7.87
2023-03-26T00:24:29.818Z,7.89
2023-03-26T00:27:42.196Z,7.99
2023-03-26T00:31:02.430Z,8.01
2023-03-26T00:34:18.603Z,8.14
2023-03-26T00:37:33.897Z,8.01
2023-03-26T00:40:48.082Z,7.95
2023-03-26T00:44:00.801Z,7.77
2023-03-26T00:47:13.389Z,7.71
2023-03-26T00:50:26.103Z,7.65
2023-03-26T00:53:39.025Z,7.64
2023-03-26T00:56:55.878Z,7.71
2023-03-26T01:00:11.225Z,7.64
2023-03-26T01:03:27.762Z,7.67
2023-03-26T01:06:42.359Z,7.73
2023-03-26T01:09:59.055Z,7.65
2023-03-26T01:13:11.415Z,7.62
2023-03-26T01:16:37.237Z,7.51
2023-03-26T01:20:15.155Z,7.49
2023-03-26T01:23:29.976Z,7.46
2023-03-26T01:26:54.695Z,7.42
2023-03-26T01:30:34.766Z,7.39
2023-03-26T01:33:50.858Z,7.37
2023-03-26T01:37:13.403Z,7.42
2023-03-26T01:40:38.812Z,7.39
2023-03-26T01:43:55.328Z,7.44
2023-03-26T01:47:07.743Z,7.42
2023-03-26T01:50:20.456Z,7.42
2023-03-26T01:53:33.677Z,7.37
2023-03-26T01:56:52.382Z,7.31
2023-03-26T02:00:28.778Z,7.35
2023-03-26T02:03:49.307Z,7.21
2023-03-26T02:08:09.718Z,7.17
2023-03-26T02:11:23.333Z,7.07
2023-03-26T02:14:36.234Z,7.07
2023-03-26T02:17:49.581Z,7.04
2023-03-26T02:21:26.258Z,7.04
2023-03-26T02:24:38.822Z,6.97
2023-03-26T02:27:52.265Z,6.93
2023-03-26T02:31:05.787Z,6.73
2023-03-26T02:34:18.398Z,6.73
2023-03-26T02:37:33.818Z,6.67
2023-03-26T02:40:48.558Z,6.71
2023-03-26T02:44:00.949Z,6.68
2023-03-26T02:47:15.013Z,6.66
2023-03-26T02:50:32.626Z,6.68
2023-03-26T02:53:47.562Z,6.70
2023-03-26T02:57:00.705Z,6.69
2023-03-26T03:00:14.623Z,6.76
2023-03-26T03:03:28.174Z,6.80
2023-03-26T03:06:42.045Z,6.73
2023-03-26T03:09:54.446Z,6.66
2023-03-26T03:13:09.940Z,6.52
2023-03-26T03:16:22.361Z,6.46
2023-03-26T03:19:35.207Z,6.40
2023-03-26T03:22:47.575Z,6.37
2023-03-26T03:26:00.145Z,6.34
2023-03-26T03:29:13.068Z,6.26
2023-03-26T03:32:25.821Z,6.31
2023-03-26T03:35:40.045Z,6.34
2023-03-26T03:38:52.845Z,6.27
2023-03-26T03:42:05.442Z,6.25
2023-03-26T03:45:18.871Z,6.17
2023-03-26T03:48:31.857Z,6.14
2023-03-26T03:51:45.069Z,6.10
2023-03-26T03:55:00.453Z,6.14
2023-03-26T03:58:15.004Z,6.01
2023-03-26T04:01:30.745Z,5.94
2023-03-26T04:04:46.442Z,5.89
2023-03-26T04:08:00.106Z,5.79
2023-03-26T04:11:14.470Z,5.76
2023-03-26T04:14:28.584Z,5.71
2023-03-26T04:17:45.449Z,5.73
2023-03-26T04:21:02.403Z,5.74
2023-03-26T04:24:15.284Z,5.61
2023-03-26T04:27:32.095Z,5.59
2023-03-26T04:30:46.928Z,5.57
2023-03-26T04:34:05.595Z,5.55
2023-03-26T04:37:34.576Z,5.48
2023-03-26T04:40:48.390Z,5.50
2023-03-26T04:44:02.461Z,5.61
2023-03-26T04:47:15.002Z,5.57
2023-03-26T04:50:28.144Z,5.48
2023-03-26T04:53:40.591Z,5.57
2023-03-26T04:56:59.380Z,5.69
2023-03-26T05:00:18.704Z,5.63
2023-03-26T05:03:32.602Z,5.63
2023-03-26T05:06:45.605Z,5.65
2023-03-26T05:09:59.184Z,5.78
2023-03-26T05:13:14.496Z,6.22
2023-03-26T05:16:29.781Z,6.48
2023-03-26T05:19:42.292Z,6.64
2023-03-26T05:22:55.107Z,6.99
2023-03-26T05:26:09.445Z,7.17
2023-03-26T05:29:24.215Z,7.35
2023-03-26T05:32:38.166Z,7.53
2023-03-26T05:36:03.997Z,7.63
2023-03-26T05:39:16.764Z,7.76
2023-03-26T05:42:31.598Z,7.95
2023-03-26T05:45:47.792Z,8.18
2023-03-26T05:49:01.398Z,8.26
2023-03-26T05:52:18.958Z,8.45
2023-03-26T05:55:33.442Z,8.56
2023-03-26T05:58:50.907Z,8.76
2023-03-26T06:02:06.503Z,8.81
2023-03-26T06:05:20.130Z,8.77
2023-03-26T06:08:33.558Z,8.57
2023-03-26T06:11:46.334Z,8.48
2023-03-26T06:14:58.752Z,8.47
2023-03-26T06:18:11.880Z,8.35
2023-03-26T06:21:25.773Z,8.30
2023-03-26T06:24:38.639Z,8.47
2023-03-26T06:27:51.327Z,8.36
2023-03-26T06:31:04.961Z,8.41
2023-03-26T06:34:17.684Z,8.47
2023-03-26T06:37:30.411Z,8.35
2023-03-26T06:40:43.067Z,8.42
2023-03-26T06:43:59.044Z,8.34
2023-03-26T06:47:11.764Z,8.45
2023-03-26T06:50:26.566Z,8.56
2023-03-26T06:53:38.996Z,8.80
2023-03-26T06:56:52.668Z,8.76
2023-03-26T07:00:06.159Z,8.92
2023-03-26T07:03:22.623Z,8.96
2023-03-26T07:06:47.555Z,9.03
2023-03-26T07:10:10.617Z,9.15
2023-03-26T07:13:24.140Z,9.35
2023-03-26T07:16:39.732Z,9.64
2023-03-26T07:19:54.261Z,9.63
2023-03-26T07:23:10.528Z,9.86
2023-03-26T07:26:35.413Z,9.83
2023-03-26T07:30:10.533Z,9.77
2023-03-26T07:33:54.866Z,9.77
2023-03-26T07:37:16.297Z,10.05
2023-03-26T07:41:13.689Z,10.18
2023-03-26T07:45:03.867Z,10.24
2023-03-26T07:48:21.157Z,10.26
2023-03-26T07:51:35.215Z,10.22
2023-03-26T07:54:48.256Z,10.32
2023-03-26T07:58:20.869Z,10.46
2023-03-26T08:01:34.594Z,10.51
2023-03-26T08:04:50.503Z,10.64
2023-03-26T08:08:32.541Z,10.95
2023-03-26T08:11:53.743Z,11.13
2023-03-26T08:15:29.580Z,11.37
2023-03-26T08:18:48.739Z,11.52
2023-03-26T08:22:06.297Z,11.89
2023-03-26T08:25:36.010Z,12.39
2023-03-26T08:29:13.286Z,12.35
2023-03-26T08:32:25.900Z,12.56
2023-03-26T08:35:42.637Z,12.68
2023-03-26T08:38:55.466Z,12.81
2023-03-26T08:42:26.740Z,12.88
2023-03-26T08:46:12.962Z,13.13
2023-03-26T08:49:42.497Z,13.51
2023-03-26T08:53:08.581Z,13.33
2023-03-26T08:56:49.598Z,13.36
2023-03-26T09:00:33.135Z,12.86
2023-03-26T09:03:48.456Z,13.06
2023-03-26T09:07:21.027Z,12.88
2023-03-26T09:10:52.295Z,13.21
2023-03-26T09:14:20.953Z,13.03
2023-03-26T09:17:48.603Z,13.04
2023-03-26T09:21:37.507Z,12.99
2023-03-26T09:24:55.924Z,13.40
2023-03-26T09:28:27.072Z,13.62
2023-03-26T09:32:16.692Z,13.80
2023-03-26T09:35:52.905Z,14.13
2023-03-26T09:39:08.813Z,14.19
2023-03-26T09:42:46.226Z,14.18
2023-03-26T09:46:21.985Z,14.47
2023-03-26T09:49:48.747Z,14.45
2023-03-26T09:53:09.330Z,14.57
2023-03-26T09:56:27.998Z,14.74
2023-03-26T10:00:07.139Z,14.49
2023-03-26T10:03:38.221Z,14.49
2023-03-26T10:07:12.469Z,14.88
2023-03-26T10:10:43.564Z,14.66
2023-03-26T10:14:04.057Z,14.74
2023-03-26T10:17:28.683Z,14.96
2023-03-26T10:20:53.170Z,14.69
2023-03-26T10:24:20.845Z,14.96
2023-03-26T10:27:57.784Z,14.65
2023-03-26T10:31:40.347Z,14.63
2023-03-26T10:35:12.124Z,14.98
2023-03-26T10:39:02.120Z,14.52
2023-03-26T10:42:33.412Z,14.60
2023-03-26T10:46:09.838Z,14.69
2023-03-26T10:49:41.444Z,14.47
2023-03-26T10:53:21.123Z,14.02
2023-03-26T10:56:40.424Z,13.97
2023-03-26T10:59:55.670Z,13.52
2023-03-26T11:03:11.312Z,13.02
2023-03-26T11:06:31.168Z,12.64
2023-03-26T11:10:14.852Z,12.32
2023-03-26T11:13:43.144Z,12.29
2023-03-26T11:17:08.745Z,12.23
2023-03-26T11:20:36.161Z,12.26
2023-03-26T11:24:05.001Z,12.19
2023-03-26T11:27:25.854Z,12.29
2023-03-26T11:31:04.565Z,13.14
2023-03-26T11:34:18.956Z,13.85
2023-03-26T11:37:47.897Z,14.22
2023-03-26T11:41:00.340Z,14.21
2023-03-26T11:44:19.229Z,14.65
2023-03-26T11:47:35.856Z,14.40
2023-03-26T11:50:51.448Z,14.63
2023-03-26T11:54:04.938Z,14.72
2023-03-26T11:57:33.399Z,14.60
2023-03-26T12:00:45.853Z,15.30
2023-03-26T12:04:18.667Z,14.93
2023-03-26T12:07:32.505Z,15.26
2023-03-26T12:10:45.540Z,15.16
2023-03-26T12:14:02.733Z,15.22
2023-03-26T12:17:31.389Z,15.85
2023-03-26T12:20:45.048Z,16.07
2023-03-26T12:23:58.647Z,16.39
2023-03-26T12:27:22.159Z,16.56
2023-03-26T12:30:37.130Z,16.05
2023-03-26T12:34:22.376Z,16.91
2023-03-26T12:37:37.096Z,16.91
2023-03-26T12:40:54.901Z,17.29
2023-03-26T12:44:54.653Z,16.94
2023-03-26T12:48:03.925Z,17.29
2023-03-26T12:51:26.786Z,17.18
2023-03-26T12:54:57.185Z,17.00
2023-03-26T12:58:25.926Z,17.51
2023-03-26T13:02:20.009Z,17.04
2023-03-26T13:05:44.096Z,16.76
2023-03-26T13:09:12.050Z,17.56
2023-03-26T13:12:25.084Z,17.67
2023-03-26T13:15:38.711Z,18.02
2023-03-26T13:19:22.537Z,17.83
2023-03-26T13:22:43.717Z,17.74
2023-03-26T13:25:56.216Z,17.40
2023-03-26T13:29:18.045Z,17.65
2023-03-26T13:32:40.076Z,17.69
2023-03-26T13:36:22.366Z,18.09
2023-03-26T13:39:41.573Z,17.87
2023-03-26T13:43:02.677Z,17.12
2023-03-26T13:46:24.697Z,17.18
2023-03-26T13:49:48.900Z,17.30
2023-03-26T13:53:25.805Z,17.85
2023-03-26T13:56:44.468Z,17.89
2023-03-26T13:59:58.761Z,17.89
2023-03-26T14:03:18.159Z,17.57
2023-03-26T14:06:57.578Z,18.10
2023-03-26T14:10:27.405Z,18.38
2023-03-26T14:13:55.831Z,18.09
2023-03-26T14:17:27.108Z,18.55
2023-03-26T14:21:03.189Z,18.54
2023-03-26T14:24:43.094Z,19.01
2023-03-26T14:27:58.481Z,19.25
2023-03-26T14:31:34.226Z,18.88
2023-03-26T14:34:59.000Z,18.02
2023-03-26T14:38:23.161Z,18.15
2023-03-26T14:41:48.983Z,18.48
2023-03-26T14:45:19.960Z,17.95
2023-03-26T14:48:54.480Z,18.45
2023-03-26T14:52:30.191Z,17.73
2023-03-26T14:56:00.572Z,18.04
2023-03-26T14:59:49.951Z,18.05
2023-03-26T15:03:07.505Z,18.36
2023-03-26T15:06:48.385Z,17.94
2023-03-26T15:10:15.608Z,18.27
2023-03-26T15:13:31.016Z,18.75
2023-03-26T15:17:01.324Z,18.93
2023-03-26T15:20:26.084Z,18.63
2023-03-26T15:24:08.977Z,18.33
2023-03-26T15:27:46.180Z,18.29
2023-03-26T15:31:14.112Z,17.79
2023-03-26T15:34:51.556Z,17.83
2023-03-26T15:38:23.385Z,17.18
2023-03-26T15:41:38.809Z,16.64
2023-03-26T15:45:14.726Z,16.88
2023-03-26T15:48:39.155Z,17.39
2023-03-26T15:52:09.964Z,17.53
2023-03-26T15:55:36.211Z,17.54
2023-03-26T15:59:15.684Z,17.68
2023-03-26T16:02:50.220Z,17.42
2023-03-26T16:06:14.115Z,17.11
2023-03-26T16:09:38.752Z,16.79
2023-03-26T16:13:28.227Z,16.53
2023-03-26T16:16:54.120Z,16.40
2023-03-26T16:20:38.654Z,16.30
2023-03-26T16:24:13.408Z,16.05
2023-03-26T16:27:30.322Z,15.80
2023-03-26T16:30:46.072Z,15.71
2023-03-26T16:34:20.536Z,15.39
2023-03-26T16:37:39.626Z,15.19
2023-03-26T16:41:00.287Z,14.99
2023-03-26T16:44:53.276Z,14.83
2023-03-26T16:48:27.695Z,14.66
2023-03-26T16:51:39.895Z,14.52
2023-03-26T16:55:14.505Z,14.38
2023-03-26T16:59:16.866Z,14.34
2023-03-26T17:02:45.858Z,14.16
2023-03-26T17:06:03.453Z,14.03
2023-03-26T17:09:19.400Z,13.92
2023-03-26T17:12:31.599Z,13.82
2023-03-26T17:16:00.001Z,13.75
2023-03-26T17:19:29.655Z,13.68
2023-03-26T17:22:56.975Z,13.53
2023-03-26T17:26:21.667Z,13.42
2023-03-26T17:30:06.361Z,13.39
2023-03-26T17:33:36.204Z,13.30
2023-03-26T17:36:56.271Z,13.29
2023-03-26T17:40:48.064Z,13.23
2023-03-26T17:44:01.014Z,13.20
2023-03-26T17:47:23.837Z,13.14
2023-03-26T17:51:00.705Z,13.16
2023-03-26T17:54:31.531Z,13.06
2023-03-26T17:57:44.779Z,12.92
2023-03-26T18:01:34.751Z,12.89
2023-03-26T18:04:48.770Z,12.74
2023-03-26T18:08:02.104Z,12.65
2023-03-26T18:11:31.725Z,12.61
2023-03-26T18:14:55.881Z,12.59
2023-03-26T18:18:28.140Z,12.58
2023-03-26T18:21:40.481Z,12.65
2023-03-26T18:24:59.750Z,12.72
2023-03-26T18:28:13.393Z,12.78
2023-03-26T18:31:26.509Z,12.80
2023-03-26T18:34:46.246Z,12.82
2023-03-26T18:38:00.059Z,13.04
2023-03-26T18:41:21.851Z,12.98
2023-03-26T18:44:36.743Z,12.79
2023-03-26T18:47:51.926Z,12.59
2023-03-26T18:51:06.088Z,12.72
2023-03-26T18:54:19.360Z,12.81
2023-03-26T18:57:32.078Z,12.77
2023-03-26T19:00:44.436Z,12.86
2023-03-26T19:04:05.811Z,12.73
2023-03-26T19:07:22.646Z,12.73
2023-03-26T19:10:35.262Z,12.65
2023-03-26T19:13:51.000Z,12.88
2023-03-26T19:17:04.708Z,12.65
2023-03-26T19:20:22.725Z,12.52
2023-03-26T19:23:37.959Z,12.42
2023-03-26T19:26:50.862Z,12.26
2023-03-26T19:30:03.716Z,12.18
2023-03-26T19:33:18.447Z,12.19
2023-03-26T19:36:32.347Z,12.33
2023-03-26T19:39:49.470Z,12.30
2023-03-26T19:43:03.691Z,12.30
2023-03-26T19:46:16.911Z,12.32
2023-03-26T19:49:34.360Z,12.29
2023-03-26T19:52:46.698Z,12.44
2023-03-26T19:56:13.210Z,12.37
2023-03-26T19:59:25.614Z,12.28
2023-03-26T20:02:38.278Z,12.23
2023-03-26T20:05:50.894Z,12.24
2023-03-26T20:09:04.219Z,12.23
2023-03-26T20:12:16.874Z,12.22
2023-03-26T20:15:31.085Z,12.28
2023-03-26T20:18:43.784Z,12.27
2023-03-26T20:21:56.565Z,12.38
2023-03-26T20:25:30.984Z,12.41
2023-03-26T20:28:48.320Z,12.34
2023-03-26T20:32:01.424Z,12.53
2023-03-26T20:35:15.590Z,12.58
2023-03-26T20:38:39.242Z,12.37
2023-03-26T20:41:53.073Z,12.45
2023-03-26T20:45:18.049Z,12.49
2023-03-26T20:48:30.414Z,12.58
2023-03-26T20:51:43.716Z,12.64
2023-03-26T20:54:56.149Z,12.57
2023-03-26T20:58:12.531Z,12.61
2023-03-26T21:01:25.128Z,12.55
2023-03-26T21:04:37.813Z,12.35
2023-03-26T21:08:02.362Z,12.55
2023-03-26T21:11:26.304Z,12.46
2023-03-26T21:14:44.343Z,12.27
2023-03-26T21:17:57.494Z,12.20
2023-03-26T21:21:28.618Z,12.16
2023-03-26T21:25:01.433Z,12.12
2023-03-26T21:28:49.202Z,12.00
2023-03-26T21:32:05.809Z,11.99
2023-03-26T21:35:18.636Z,12.00
2023-03-26T21:38:32.926Z,11.98
2023-03-26T21:42:05.399Z,11.93
2023-03-26T21:45:19.055Z,11.87
2023-03-26T21:48:31.709Z,11.85
2023-03-26T21:51:44.660Z,11.96
2023-03-26T21:55:00.678Z,11.90
2023-03-26T21:58:37.019Z,11.69
2023-03-26T22:02:02.887Z,11.72
2023-03-26T22:05:17.341Z,11.44
2023-03-26T22:08:31.552Z,11.59
2023-03-26T22:11:44.316Z,11.26
2023-03-26T22:14:58.124Z,11.11
2023-03-26T22:18:10.766Z,10.93
2023-03-26T22:21:23.610Z,10.77
2023-03-26T22:24:37.178Z,10.66
2023-03-26T22:27:49.926Z,10.59
2023-03-26T22:31:08.618Z,10.53
2023-03-26T22:34:23.133Z,10.37
2023-03-26T22:37:37.155Z,10.18
2023-03-26T22:40:58.785Z,10.25
2023-03-26T22:44:19.876Z,10.22
2023-03-26T22:47:34.392Z,10.26
2023-03-26T22:50:56.936Z,10.07
2023-03-26T22:54:09.628Z,9.99
2023-03-26T22:57:22.825Z,9.89
2023-03-26T23:00:36.205Z,9.80
2023-03-26T23:03:49.059Z,9.75
2023-03-26T23:07:01.496Z,9.68
2023-03-26T23:10:14.096Z,9.65
2023-03-26T23:13:26.677Z,9.84
2023-03-26T23:16:39.353Z,9.55
2023-03-26T23:19:51.713Z,9.37
2023-03-26T23:23:04.308Z,9.44
2023-03-26T23:26:16.711Z,9.31
2023-03-26T23:29:30.151Z,9.19
2023-03-26T23:32:42.515Z,9.15
2023-03-26T23:35:59.921Z,9.13
2023-03-26T23:39:12.330Z,9.07
2023-03-26T23:42:28.988Z,8.97
2023-03-26T23:45:46.480Z,8.94
2023-03-26T23:49:00.135Z,8.98
2023-03-26T23:52:12.756Z,8.96
2023-03-26T23:55:28.247Z,9.11
2023-03-26T23:58:40.599Z,9.35
